Time;durP1;ratioP1;P1;durP2;ratioP2;P2;SDS_P1;SDS_P2;PMS_P1;PMS_P2;Temp;Humidity;BMP_temperature;BMP_pressure;BME280_temperature;BME280_humidity;BME280_pressure;Samples;Min_cycle;Max_cycle;Signal;HPM_P1;HPM_P2
2021/11/08 00:01:13;;;;;;;0.45;0.20;;;27.20;96.80;;;;;;5075693;28;20251;-71
2021/11/08 00:03:44;;;;;;;0.65;0.65;;;27.40;97.80;;;;;;5078475;28;20543;-72
2021/11/08 00:06:14;;;;;;;0.30;0.20;;;27.60;97.60;;;;;;5078916;28;20062;-73
2021/11/08 00:08:42;;;;;;;1.25;0.30;;;27.60;97.80;;;;;;5076017;28;20655;-73
2021/11/08 00:11:09;;;;;;;0.40;0.20;;;27.20;97.30;;;;;;5083110;28;20028;-72
2021/11/08 00:13:37;;;;;;;0.20;0.20;;;26.70;97.90;;;;;;5078301;28;20024;-71
2021/11/08 00:16:17;;;;;;;0.20;0.15;;;26.40;98.40;;;;;;5082198;28;20017;-71
2021/11/08 00:21:32;;;;;;;;;;;26.30;98.80;;;;;;5079499;28;20123;-72
2021/11/08 00:24:00;;;;;;;1.10;0.43;;;26.10;99.10;;;;;;5083074;28;19953;-70
2021/11/08 00:26:28;;;;;;;0.40;0.30;;;26.30;99.70;;;;;;5072404;28;20382;-71
2021/11/08 00:28:55;;;;;;;0.65;0.30;;;26.50;99.30;;;;;;5074751;28;20028;-71
2021/11/08 00:31:23;;;;;;;0.68;0.35;;;26.60;99.30;;;;;;5073555;28;20031;-72
2021/11/08 00:33:50;;;;;;;1.40;0.47;;;27.00;98.70;;;;;;5082447;28;20060;-71
2021/11/08 00:36:17;;;;;;;0.32;0.20;;;27.50;96.80;;;;;;5079438;28;20104;-71
2021/11/08 00:38:45;;;;;;;0.40;0.30;;;27.90;96.60;;;;;;5080264;28;20115;-73
2021/11/08 00:41:12;;;;;;;0.35;0.30;;;28.00;97.00;;;;;;5080913;28;20115;-72
2021/11/08 00:43:40;;;;;;;0.25;0.20;;;27.60;96.40;;;;;;5083118;28;20125;-72
2021/11/08 00:46:08;;;;;;;0.20;0.20;;;27.00;97.10;;;;;;5076261;28;20386;-73
2021/11/08 00:48:37;;;;;;;0.30;0.20;;;26.90;97.20;;;;;;5079604;28;20433;-72
2021/11/08 00:51:05;;;;;;;0.30;0.30;;;27.50;96.20;;;;;;5074472;28;20754;-72
2021/11/08 00:53:32;;;;;;;0.22;0.20;;;27.60;95.60;;;;;;5078107;28;20550;-72
2021/11/08 00:56:03;;;;;;;1.63;0.52;;;27.70;96.20;;;;;;5076211;28;20032;-72
2021/11/08 00:58:35;;;;;;;0.82;0.52;;;27.60;96.50;;;;;;5079020;28;20019;-72
2021/11/08 01:01:05;;;;;;;0.90;0.35;;;27.50;95.90;;;;;;5076394;28;20040;-72
2021/11/08 01:03:39;;;;;;;0.30;0.30;;;27.10;96.20;;;;;;5079992;28;20036;-72
2021/11/08 01:06:07;;;;;;;0.70;0.20;;;27.20;96.30;;;;;;5057028;28;20025;-71
2021/11/08 01:08:35;;;;;;;0.82;0.20;;;27.80;96.90;;;;;;5085171;28;20078;-72
2021/11/08 01:11:03;;;;;;;0.20;0.20;;;28.40;95.20;;;;;;5077871;28;20040;-71
2021/11/08 01:13:30;;;;;;;0.30;0.20;;;28.80;94.20;;;;;;5077593;28;20035;-72
2021/11/08 01:15:58;;;;;;;0.80;0.30;;;29.10;94.70;;;;;;5077334;28;20113;-72
2021/11/08 01:18:26;;;;;;;0.55;0.28;;;29.60;94.70;;;;;;5082303;28;20055;-72
2021/11/08 01:20:54;;;;;;;0.47;0.20;;;29.80;92.80;;;;;;5081697;28;20056;-71
2021/11/08 01:23:27;;;;;;;0.30;0.20;;;29.80;94.60;;;;;;5074608;28;20735;-72
2021/11/08 01:26:06;;;;;;;0.20;0.10;;;29.90;94.10;;;;;;5082476;28;20020;-72
2021/11/08 01:28:36;;;;;;;0.20;0.17;;;30.00;92.50;;;;;;5079493;28;20028;-72
2021/11/08 01:31:07;;;;;;;0.20;0.20;;;30.00;90.60;;;;;;5080934;28;20069;-72
2021/11/08 01:33:35;;;;;;;0.93;0.40;;;29.60;91.30;;;;;;5080557;28;20052;-72
2021/11/08 01:38:45;;;;;;;0.20;0.20;;;30.10;90.80;;;;;;5085496;28;20031;-73
2021/11/08 01:41:14;;;;;;;0.68;0.30;;;30.30;89.40;;;;;;5078213;28;20475;-71
2021/11/08 01:43:43;;;;;;;1.08;0.60;;;29.90;90.60;;;;;;5077599;28;20829;-72
2021/11/08 01:46:12;;;;;;;2.35;0.82;;;29.50;91.40;;;;;;5077929;28;20028;-72
2021/11/08 01:48:41;;;;;;;1.50;0.52;;;29.30;92.30;;;;;;5081875;28;20043;-72
2021/11/08 01:51:09;;;;;;;1.63;0.47;;;28.70;92.50;;;;;;5079166;28;20031;-72
2021/11/08 01:53:38;;;;;;;1.35;0.52;;;28.40;93.40;;;;;;5077229;28;20029;-72
2021/11/08 01:56:06;;;;;;;1.30;0.40;;;28.60;93.30;;;;;;5079335;28;20042;-72
2021/11/08 01:58:35;;;;;;;2.78;1.20;;;28.80;93.00;;;;;;5083674;28;20459;-73
2021/11/08 02:01:04;;;;;;;3.65;0.68;;;29.30;93.60;;;;;;5079244;28;20024;-71
2021/11/08 02:03:32;;;;;;;4.20;0.90;;;29.40;93.10;;;;;;5080970;28;20054;-72
2021/11/08 02:05:59;;;;;;;4.35;1.00;;;29.30;93.40;;;;;;5083961;28;20413;-72
2021/11/08 02:08:27;;;;;;;5.63;0.70;;;29.40;93.30;;;;;;5080019;28;20024;-71
2021/11/08 02:10:56;;;;;;;3.60;1.38;;;28.80;93.40;;;;;;5078039;28;20028;-72
2021/11/08 02:13:24;;;;;;;3.33;0.73;;;28.40;94.40;;;;;;5078750;28;20107;-70
2021/11/08 02:15:52;;;;;;;5.53;1.13;;;28.60;94.00;;;;;;5077690;28;20595;-71
2021/11/08 02:18:21;;;;;;;3.42;0.95;;;28.90;94.10;;;;;;5075850;28;20031;-70
2021/11/08 02:20:50;;;;;;;3.28;0.90;;;29.30;94.00;;;;;;5076750;28;20419;-73
2021/11/08 02:23:19;;;;;;;0.90;0.60;;;29.60;92.50;;;;;;5082408;28;20028;-72
2021/11/08 02:25:48;;;;;;;6.90;1.20;;;29.60;92.60;;;;;;5081246;28;20067;-72
2021/11/08 02:28:17;;;;;;;2.03;0.60;;;29.60;91.90;;;;;;5077410;28;20028;-73
2021/11/08 02:30:46;;;;;;;2.92;0.50;;;29.80;92.60;;;;;;5084342;28;20122;-72
2021/11/08 02:33:17;;;;;;;2.00;0.55;;;29.80;92.30;;;;;;5078015;28;20097;-72
2021/11/08 02:35:45;;;;;;;3.00;1.15;;;29.70;92.30;;;;;;5082808;28;20047;-72
2021/11/08 02:38:20;;;;;;;2.20;0.82;;;29.80;92.60;;;;;;5084386;28;20046;-72
2021/11/08 02:40:47;;;;;;;3.30;0.80;;;30.00;92.40;;;;;;5077599;28;20039;-73
2021/11/08 02:43:27;;;;;;;3.42;0.80;;;30.00;92.20;;;;;;5078139;28;20024;-71
2021/11/08 02:46:06;;;;;;;2.85;0.82;;;30.40;91.60;;;;;;5079613;28;20024;-72
2021/11/08 02:48:35;;;;;;;2.60;0.52;;;30.60;91.60;;;;;;5083368;28;20086;-71
2021/11/08 02:51:08;;;;;;;1.88;0.60;;;30.60;91.10;;;;;;5080270;28;20440;-71
2021/11/08 02:53:38;;;;;;;1.55;0.80;;;30.70;90.90;;;;;;5080137;28;20032;-72
2021/11/08 02:56:07;;;;;;;2.88;0.55;;;30.60;92.10;;;;;;5082608;28;20024;-72
2021/11/08 02:58:37;;;;;;;2.50;0.70;;;30.80;90.90;;;;;;5077943;28;20032;-73
2021/11/08 03:01:09;;;;;;;2.10;0.80;;;30.70;90.40;;;;;;5063135;28;20027;-70
2021/11/08 03:03:42;;;;;;;6.60;1.10;;;30.70;90.50;;;;;;5079856;28;20393;-71
2021/11/08 03:08:54;;;;;;;1.40;0.80;;;30.90;90.40;;;;;;5084795;28;20036;-72
2021/11/08 03:11:23;;;;;;;4.97;1.27;;;30.80;89.70;;;;;;5077293;28;20372;-71
2021/11/08 03:14:03;;;;;;;2.85;1.60;;;31.10;91.60;;;;;;5078527;28;20032;-72
2021/11/08 03:16:46;;;;;;;1.77;0.90;;;31.20;90.30;;;;;;5079907;28;20051;-72
2021/11/08 03:21:57;;;;;;;2.15;0.85;;;31.10;90.20;;;;;;5087463;28;20024;-72
2021/11/08 03:27:11;;;;;;;2.22;0.80;;;29.70;91.10;;;;;;5076711;28;20044;-71
2021/11/08 03:29:38;;;;;;;2.38;1.35;;;29.20;91.50;;;;;;5076386;28;20123;-72
2021/11/08 03:32:06;;;;;;;3.55;0.85;;;29.20;91.60;;;;;;5077737;28;20035;-71
2021/11/08 03:34:36;;;;;;;3.38;0.80;;;29.40;91.40;;;;;;5068249;28;20075;-71
2021/11/08 03:37:04;;;;;;;1.33;1.13;;;29.20;91.60;;;;;;5080494;28;20035;-71
2021/11/08 03:39:32;;;;;;;1.52;1.00;;;28.80;92.40;;;;;;5075043;28;20384;-72
2021/11/08 03:41:59;;;;;;;3.63;1.98;;;28.30;92.70;;;;;;5070582;28;20040;-72
2021/11/08 03:44:29;;;;;;;5.63;1.38;;;28.10;93.20;;;;;;5077974;28;20020;-72
2021/11/08 03:46:56;;;;;;;1.83;0.70;;;27.90;93.50;;;;;;5075731;28;20028;-71
2021/11/08 03:49:25;;;;;;;2.38;0.75;;;27.70;93.60;;;;;;5083532;28;20063;-69
2021/11/08 03:51:53;;;;;;;1.42;0.63;;;27.80;93.60;;;;;;5072223;28;20117;-70
2021/11/08 03:54:20;;;;;;;2.67;0.90;;;28.10;93.70;;;;;;5080426;28;20064;-69
2021/11/08 03:56:48;;;;;;;2.90;0.93;;;28.60;93.60;;;;;;5075184;28;20024;-72
2021/11/08 03:59:15;;;;;;;4.97;1.35;;;29.10;92.80;;;;;;5078044;28;20028;-72
2021/11/08 04:01:43;;;;;;;2.42;1.08;;;29.30;92.30;;;;;;5080540;28;20043;-72
2021/11/08 04:04:13;;;;;;;2.50;0.68;;;29.50;93.10;;;;;;5078780;28;20028;-71
2021/11/08 04:06:43;;;;;;;2.58;1.48;;;29.50;91.50;;;;;;5077425;28;20032;-70
2021/11/08 04:09:12;;;;;;;4.90;1.25;;;29.10;92.00;;;;;;5081330;28;20040;-70
2021/11/08 04:11:42;;;;;;;2.95;1.13;;;28.40;92.70;;;;;;5076196;28;20145;-73
2021/11/08 04:14:12;;;;;;;3.88;1.95;;;27.70;93.60;;;;;;5078958;28;20073;-71
2021/11/08 04:16:40;;;;;;;5.55;1.40;;;27.10;94.30;;;;;;5077617;28;20035;-72
2021/11/08 04:19:09;;;;;;;5.03;1.75;;;26.80;94.80;;;;;;5084695;28;20078;-71
2021/11/08 04:21:37;;;;;;;3.60;1.67;;;26.60;95.50;;;;;;5062269;28;20040;-71
2021/11/08 04:24:06;;;;;;;3.90;1.75;;;26.30;96.00;;;;;;5075111;28;20031;-73
2021/11/08 04:26:35;;;;;;;4.75;1.60;;;26.10;96.90;;;;;;5080105;28;20027;-71
2021/11/08 04:29:04;;;;;;;3.15;2.03;;;26.00;97.40;;;;;;5081296;28;20123;-71
2021/11/08 04:31:37;;;;;;;6.65;1.92;;;25.80;98.10;;;;;;5086826;28;20032;-73
2021/11/08 04:55:24;;;;;;;3.15;2.00;;;25.80;99.90;;;;;;5081692;28;20028;-71
2021/11/08 05:25:29;;;;;;;2.55;1.25;;;26.90;97.50;;;;;;5078290;28;20032;-71
2021/11/08 05:30:40;;;;;;;3.53;1.05;;;27.10;96.90;;;;;;5080255;28;20043;-70
2021/11/08 05:33:07;;;;;;;3.17;1.30;;;26.90;96.70;;;;;;5065645;28;20107;-70
2021/11/08 05:35:35;;;;;;;3.33;1.63;;;26.50;97.30;;;;;;5083309;28;20043;-70
2021/11/08 05:38:06;;;;;;;3.72;1.63;;;26.50;97.60;;;;;;5082098;28;20095;-71
2021/11/08 05:40:38;;;;;;;5.60;1.35;;;26.50;97.30;;;;;;5086384;28;20040;-71
2021/11/08 05:43:06;;;;;;;3.00;1.20;;;26.60;97.60;;;;;;5085462;28;20130;-70
2021/11/08 05:45:36;;;;;;;2.92;1.27;;;26.70;97.10;;;;;;5080602;28;20465;-71
2021/11/08 05:48:08;;;;;;;2.60;1.38;;;26.60;97.20;;;;;;5083305;28;20020;-71
2021/11/08 05:50:37;;;;;;;4.20;1.33;;;26.60;97.40;;;;;;5081786;28;20913;-70
2021/11/08 05:53:08;;;;;;;2.22;1.30;;;26.70;97.20;;;;;;5084666;28;20101;-71
2021/11/08 05:56:46;;;;;;;3.72;1.67;;;26.70;97.00;;;;;;5086046;28;20177;-70
2021/11/08 06:11:39;;;;;;;2.92;1.40;;;26.00;97.60;;;;;;5081785;28;20581;-70
2021/11/08 06:51:05;;;;;;;2.70;0.88;;;24.70;99.70;;;;;;5082977;28;20069;-74
2021/11/08 06:53:34;;;;;;;3.92;1.17;;;24.60;99.90;;;;;;5082337;28;20412;-72
2021/11/08 06:56:02;;;;;;;4.38;0.77;;;24.40;99.90;;;;;;5084388;28;20012;-72
2021/11/08 06:58:30;;;;;;;3.22;1.00;;;24.40;99.90;;;;;;5086419;28;20036;-72
2021/11/08 07:00:57;;;;;;;1.83;0.80;;;24.30;99.90;;;;;;5076372;28;20467;-73
2021/11/08 07:03:25;;;;;;;2.30;0.80;;;24.30;99.90;;;;;;5079081;28;20032;-72
2021/11/08 07:05:52;;;;;;;3.60;0.55;;;24.20;99.90;;;;;;5078457;28;20028;-71
2021/11/08 07:08:20;;;;;;;3.22;0.70;;;24.20;99.90;;;;;;5079629;28;20066;-73
2021/11/08 07:10:47;;;;;;;3.42;1.15;;;24.20;99.90;;;;;;5081550;28;20028;-73
2021/11/08 07:13:15;;;;;;;1.90;0.60;;;24.00;99.90;;;;;;5078948;28;20031;-71
2021/11/08 07:15:43;;;;;;;2.85;0.68;;;23.90;99.90;;;;;;5079265;28;20024;-72
2021/11/08 07:18:10;;;;;;;1.20;0.40;;;23.80;99.90;;;;;;5083539;28;20105;-72
2021/11/08 07:20:38;;;;;;;2.08;0.90;;;23.70;99.90;;;;;;5087088;28;20020;-71
2021/11/08 07:23:05;;;;;;;2.17;1.08;;;23.60;99.90;;;;;;5090956;28;20028;-71
2021/11/08 07:25:33;;;;;;;2.47;0.70;;;23.40;99.90;;;;;;5071157;28;20054;-70
2021/11/08 07:28:03;;;;;;;3.38;0.90;;;23.20;99.90;;;;;;5092114;28;20031;-71
2021/11/08 07:30:31;;;;;;;3.28;0.75;;;23.10;99.90;;;;;;5088518;28;20147;-71
2021/11/08 07:32:59;;;;;;;2.30;0.77;;;23.00;99.90;;;;;;5083927;28;20044;-71
2021/11/08 07:35:26;;;;;;;2.92;0.60;;;23.00;99.90;;;;;;5087911;28;20061;-71
2021/11/08 07:37:53;;;;;;;3.30;0.90;;;23.00;99.90;;;;;;5084848;28;20116;-71
2021/11/08 07:40:21;;;;;;;2.05;1.02;;;23.00;99.90;;;;;;5088486;28;20042;-71
2021/11/08 07:42:49;;;;;;;5.32;0.75;;;23.00;99.90;;;;;;5092218;28;20043;-71
2021/11/08 07:45:16;;;;;;;3.38;1.25;;;23.00;99.90;;;;;;5088075;28;20023;-71
2021/11/08 07:47:44;;;;;;;3.55;1.10;;;22.80;99.90;;;;;;5088396;28;20475;-72
2021/11/08 07:50:11;;;;;;;6.10;1.25;;;22.80;99.90;;;;;;5086433;28;20079;-72
2021/11/08 07:52:38;;;;;;;3.85;0.85;;;22.70;99.90;;;;;;5087152;28;20021;-71
2021/11/08 07:55:06;;;;;;;5.28;1.10;;;22.70;99.90;;;;;;5083225;28;20032;-72
2021/11/08 07:57:34;;;;;;;2.80;1.05;;;22.70;99.90;;;;;;5091208;28;20024;-71
2021/11/08 08:00:01;;;;;;;4.90;0.80;;;22.70;99.90;;;;;;5086864;28;20027;-71
2021/11/08 08:02:29;;;;;;;4.00;0.70;;;22.60;99.90;;;;;;5079412;28;20055;-71
2021/11/08 08:04:56;;;;;;;1.85;0.65;;;22.50;99.90;;;;;;5087777;28;20028;-72
2021/11/08 08:07:23;;;;;;;3.60;1.85;;;22.40;99.90;;;;;;5083183;28;20043;-72
2021/11/08 08:09:50;;;;;;;3.08;0.90;;;22.50;99.90;;;;;;5090918;28;20028;-71
2021/11/08 08:12:18;;;;;;;1.60;0.82;;;22.30;99.90;;;;;;5081184;28;20099;-72
2021/11/08 08:14:45;;;;;;;2.17;0.57;;;22.30;99.90;;;;;;5079453;28;20115;-71
2021/11/08 08:17:13;;;;;;;3.00;0.73;;;22.20;99.90;;;;;;5083434;28;20483;-72
2021/11/08 08:19:41;;;;;;;2.83;0.77;;;22.20;99.90;;;;;;5080294;28;20432;-72
2021/11/08 08:22:09;;;;;;;2.15;0.85;;;22.20;99.90;;;;;;5078676;28;20081;-73
2021/11/08 08:24:36;;;;;;;2.22;0.70;;;22.10;99.90;;;;;;5091082;28;20035;-72
2021/11/08 08:27:04;;;;;;;2.63;0.50;;;22.10;99.90;;;;;;5091642;28;20507;-70
2021/11/08 08:29:33;;;;;;;6.65;0.68;;;22.10;99.90;;;;;;5091441;28;20044;-69
2021/11/08 08:32:00;;;;;;;2.88;0.70;;;22.00;99.90;;;;;;5088759;28;20024;-70
2021/11/08 08:34:29;;;;;;;3.03;0.73;;;22.00;99.90;;;;;;5091804;28;20039;-70
2021/11/08 08:36:58;;;;;;;2.08;0.55;;;21.90;99.90;;;;;;5079395;28;20417;-71
2021/11/08 08:39:26;;;;;;;1.95;0.70;;;21.80;99.90;;;;;;5088353;28;20032;-72
2021/11/08 08:41:54;;;;;;;2.00;1.00;;;21.80;99.90;;;;;;5093933;28;20034;-72
2021/11/08 08:44:21;;;;;;;2.55;0.57;;;21.80;99.90;;;;;;5093453;28;20035;-71
2021/11/08 08:46:50;;;;;;;2.15;0.50;;;21.70;99.90;;;;;;5091231;28;20484;-73
2021/11/08 08:49:18;;;;;;;2.22;0.75;;;21.60;99.90;;;;;;5095699;28;20394;-71
2021/11/08 08:51:46;;;;;;;4.15;1.10;;;21.70;99.90;;;;;;5093816;28;20065;-72
2021/11/08 08:54:13;;;;;;;4.10;0.90;;;21.60;99.90;;;;;;5094779;28;20034;-72
2021/11/08 08:56:41;;;;;;;3.00;0.80;;;21.60;99.90;;;;;;5082136;28;20055;-72
2021/11/08 08:59:09;;;;;;;5.05;0.80;;;21.50;99.90;;;;;;5082588;28;20115;-73
2021/11/08 09:01:36;;;;;;;3.30;1.02;;;21.50;99.90;;;;;;5086327;28;20019;-71
2021/11/08 09:04:04;;;;;;;2.95;0.70;;;21.40;99.90;;;;;;5083517;28;20020;-72
2021/11/08 09:06:32;;;;;;;3.13;0.85;;;21.40;99.90;;;;;;5086710;28;20024;-73
2021/11/08 09:08:59;;;;;;;3.08;0.57;;;21.40;99.90;;;;;;5094696;28;20591;-73
2021/11/08 09:11:27;;;;;;;3.17;0.65;;;21.40;99.90;;;;;;5093315;28;20090;-72
2021/11/08 09:13:55;;;;;;;5.15;1.08;;;21.40;99.90;;;;;;5082890;28;20016;-71
2021/11/08 09:16:22;;;;;;;3.47;1.00;;;21.30;99.90;;;;;;5080015;28;20055;-71
2021/11/08 09:18:54;;;;;;;1.38;0.90;;;21.30;99.90;;;;;;5093786;28;20020;-71
2021/11/08 09:21:25;;;;;;;4.00;1.30;;;21.30;99.90;;;;;;5093630;28;20100;-71
2021/11/08 09:23:55;;;;;;;3.85;0.82;;;21.30;99.90;;;;;;5093202;28;20077;-71
2021/11/08 09:26:25;;;;;;;2.85;1.23;;;21.30;99.90;;;;;;5090948;28;20032;-71
2021/11/08 09:28:53;;;;;;;1.65;0.60;;;21.30;99.90;;;;;;5089867;28;20399;-71
2021/11/08 09:31:22;;;;;;;1.23;0.63;;;21.20;99.90;;;;;;5092827;28;20057;-72
2021/11/08 09:33:57;;;;;;;2.22;1.60;;;21.20;99.90;;;;;;5093591;28;20048;-71
2021/11/08 09:36:24;;;;;;;5.63;0.77;;;21.20;99.90;;;;;;5091047;28;20054;-71
2021/11/08 09:38:56;;;;;;;1.83;0.57;;;21.10;99.90;;;;;;5093836;28;20368;-72
2021/11/08 09:41:33;;;;;;;5.15;0.93;;;21.20;99.90;;;;;;5092753;28;20027;-71
2021/11/08 09:44:03;;;;;;;5.25;0.73;;;21.10;99.90;;;;;;5093163;28;20074;-71
2021/11/08 09:46:32;;;;;;;1.95;0.80;;;21.10;99.90;;;;;;5088985;28;20034;-71
2021/11/08 09:49:03;;;;;;;1.83;0.50;;;21.10;99.90;;;;;;5094586;28;20035;-72
2021/11/08 09:51:42;;;;;;;3.08;0.73;;;21.10;99.90;;;;;;5075205;28;20024;-71
2021/11/08 09:54:10;;;;;;;3.95;0.85;;;21.10;99.90;;;;;;5092122;28;20539;-71
2021/11/08 09:56:44;;;;;;;1.17;0.60;;;21.10;99.90;;;;;;5080624;28;20498;-71
2021/11/08 09:59:12;;;;;;;3.40;0.50;;;21.10;99.90;;;;;;5083379;28;20032;-71
2021/11/08 10:01:43;;;;;;;2.60;0.98;;;21.10;99.90;;;;;;5085843;28;20456;-71
2021/11/08 10:04:14;;;;;;;2.45;0.80;;;21.10;99.90;;;;;;5084924;28;20025;-71
2021/11/08 10:06:43;;;;;;;1.85;1.13;;;21.10;99.90;;;;;;5081909;28;20413;-71
2021/11/08 10:09:13;;;;;;;1.65;1.05;;;21.00;99.90;;;;;;5081762;28;20474;-72
2021/11/08 10:11:46;;;;;;;3.67;1.02;;;21.00;99.90;;;;;;5082866;28;20421;-72
2021/11/08 10:14:14;;;;;;;2.83;0.80;;;21.00;99.90;;;;;;5084854;28;20065;-72
2021/11/08 10:16:43;;;;;;;2.25;0.73;;;20.90;99.90;;;;;;5088575;28;20016;-72
2021/11/08 10:19:13;;;;;;;5.75;1.02;;;20.90;99.90;;;;;;5075531;28;20087;-72
2021/11/08 10:21:49;;;;;;;1.67;0.63;;;20.90;99.90;;;;;;5091258;28;20039;-72
2021/11/08 10:24:35;;;;;;;4.28;0.70;;;20.90;99.90;;;;;;5073759;28;20058;-72
2021/11/08 10:27:11;;;;;;;2.03;0.77;;;21.00;99.90;;;;;;5090794;28;20024;-72
2021/11/08 10:29:47;;;;;;;2.90;0.77;;;21.00;99.90;;;;;;5088157;28;20043;-71
2021/11/08 10:32:14;;;;;;;;;;;20.90;99.90;;;;;;5091340;28;20028;-71
2021/11/08 10:34:51;;;;;;;3.50;0.68;;;20.90;99.90;;;;;;5089724;28;19912;-72
2021/11/08 10:37:31;;;;;;;3.30;0.70;;;20.80;99.90;;;;;;5088255;28;20044;-73
2021/11/08 10:40:00;;;;;;;1.92;0.73;;;20.80;99.90;;;;;;5077669;28;20082;-72
2021/11/08 10:42:30;;;;;;;4.90;1.98;;;20.80;99.90;;;;;;5087684;28;20020;-72
2021/11/08 10:45:01;;;;;;;4.80;0.75;;;20.80;99.90;;;;;;5092795;28;20065;-72
2021/11/08 10:47:29;;;;;;;2.42;0.80;;;20.80;99.90;;;;;;5089931;28;20119;-71
2021/11/08 10:49:56;;;;;;;1.45;0.70;;;20.70;99.90;;;;;;5092728;28;20070;-71
2021/11/08 10:52:31;;;;;;;3.10;0.80;;;20.70;99.90;;;;;;5074645;28;20048;-72
2021/11/08 10:54:59;;;;;;;2.22;1.00;;;20.70;99.90;;;;;;5087207;28;20563;-72
2021/11/08 10:57:30;;;;;;;3.47;1.00;;;20.70;99.90;;;;;;5090702;28;20121;-72
2021/11/08 11:00:00;;;;;;;1.45;0.70;;;20.60;99.90;;;;;;5092376;28;20034;-72
2021/11/08 11:02:31;;;;;;;2.60;0.80;;;20.70;99.90;;;;;;5088503;28;20119;-72
2021/11/08 11:05:12;;;;;;;5.18;0.80;;;20.70;99.90;;;;;;5089236;28;20024;-71
2021/11/08 11:07:41;;;;;;;1.98;0.70;;;20.70;99.90;;;;;;5081228;28;20422;-72
2021/11/08 11:10:09;;;;;;;4.22;0.90;;;20.70;99.90;;;;;;5089425;28;20032;-72
2021/11/08 11:12:37;;;;;;;4.78;1.13;;;20.70;99.90;;;;;;5087874;28;20016;-71
2021/11/08 11:15:09;;;;;;;2.40;0.70;;;20.70;99.90;;;;;;5082966;28;20513;-72
2021/11/08 11:18:01;;;;;;;2.65;1.00;;;20.60;99.90;;;;;;5087056;28;20119;-71
2021/11/08 11:20:39;;;;;;;1.35;0.68;;;20.60;99.90;;;;;;5090267;28;20123;-72
2021/11/08 11:23:20;;;;;;;1.77;0.75;;;20.60;99.90;;;;;;5087052;28;20020;-72
2021/11/08 11:25:52;;;;;;;3.88;0.60;;;20.60;99.90;;;;;;5086421;28;20371;-72
2021/11/08 11:28:35;;;;;;;3.92;0.77;;;20.60;99.90;;;;;;5090053;28;20077;-72
2021/11/08 11:31:19;;;;;;;1.33;0.73;;;20.60;99.90;;;;;;5083454;28;20075;-72
2021/11/08 11:33:49;;;;;;;4.10;1.20;;;20.50;99.90;;;;;;5082276;28;20044;-72
2021/11/08 11:36:19;;;;;;;2.83;1.13;;;20.50;99.90;;;;;;5085255;28;20034;-73
2021/11/08 11:39:10;;;;;;;1.40;0.60;;;20.50;99.90;;;;;;5089540;28;20098;-73
2021/11/08 11:41:40;;;;;;;3.33;0.80;;;20.50;99.90;;;;;;5067173;28;20035;-73
2021/11/08 11:44:10;;;;;;;0.85;0.57;;;20.40;99.90;;;;;;5090974;28;20088;-73
2021/11/08 11:46:44;;;;;;;3.83;0.73;;;20.40;99.90;;;;;;5088896;28;20426;-73
2021/11/08 11:49:13;;;;;;;2.22;1.00;;;20.50;99.90;;;;;;5087648;28;20036;-73
2021/11/08 11:51:44;;;;;;;2.72;1.42;;;20.40;99.90;;;;;;5061059;28;20024;-72
2021/11/08 11:54:13;;;;;;;2.17;0.75;;;20.40;99.90;;;;;;5063346;28;20479;-73
2021/11/08 11:56:44;;;;;;;3.25;1.05;;;20.40;99.90;;;;;;5076757;28;20033;-72
2021/11/08 11:59:13;;;;;;;4.50;1.23;;;20.40;99.90;;;;;;5080487;28;20020;-73
2021/11/08 12:01:42;;;;;;;1.27;1.05;;;20.30;99.90;;;;;;5079215;28;20097;-72
2021/11/08 12:04:10;;;;;;;4.03;0.77;;;20.30;99.90;;;;;;5074304;28;20024;-73
2021/11/08 12:06:42;;;;;;;1.75;0.93;;;20.30;99.90;;;;;;5078688;28;20048;-73
2021/11/08 12:09:14;;;;;;;6.32;1.50;;;20.20;99.90;;;;;;5086553;28;20043;-73
2021/11/08 12:11:48;;;;;;;3.42;1.10;;;20.20;99.90;;;;;;5087150;28;20020;-72
2021/11/08 12:14:22;;;;;;;2.08;0.90;;;20.20;99.90;;;;;;5080371;28;20035;-73
2021/11/08 12:17:13;;;;;;;2.45;0.63;;;20.20;99.90;;;;;;5088557;28;20413;-73
2021/11/08 12:19:43;;;;;;;1.25;0.90;;;20.20;99.90;;;;;;5089909;28;20024;-73
2021/11/08 12:22:20;;;;;;;3.33;0.75;;;20.20;99.90;;;;;;5075508;28;20059;-74
2021/11/08 12:25:18;;;;;;;3.72;1.95;;;20.20;99.90;;;;;;5082643;28;20024;-73
2021/11/08 12:28:07;;;;;;;3.13;0.68;;;20.20;99.90;;;;;;5065228;28;20055;-73
2021/11/08 12:30:41;;;;;;;4.10;1.00;;;20.20;99.90;;;;;;5082000;28;20036;-72
2021/11/08 12:33:29;;;;;;;3.83;1.08;;;20.20;99.90;;;;;;5087585;28;20043;-72
2021/11/08 12:35:59;;;;;;;2.13;1.10;;;20.20;99.90;;;;;;5083510;28;22612;-71
2021/11/08 12:38:33;;;;;;;2.03;1.00;;;20.10;99.90;;;;;;5085829;28;20055;-72
2021/11/08 12:41:13;;;;;;;3.78;1.00;;;20.10;99.90;;;;;;5078243;28;20028;-71
2021/11/08 12:43:48;;;;;;;4.88;0.93;;;20.00;99.90;;;;;;5081525;28;20028;-70
2021/11/08 12:46:21;;;;;;;2.22;0.80;;;19.90;99.90;;;;;;5085236;28;20036;-72
2021/11/08 12:48:50;;;;;;;2.60;0.88;;;19.90;99.90;;;;;;5084940;28;20036;-72
2021/11/08 12:51:22;;;;;;;1.88;0.80;;;19.90;99.90;;;;;;5076950;28;20020;-72
2021/11/08 12:54:03;;;;;;;1.33;0.80;;;19.90;99.90;;;;;;5083307;28;20020;-72
2021/11/08 12:56:38;;;;;;;5.95;1.10;;;20.00;99.90;;;;;;5076606;28;20052;-72
2021/11/08 12:59:18;;;;;;;1.45;0.80;;;20.00;99.90;;;;;;5085438;28;20490;-72
2021/11/08 13:01:56;;;;;;;1.50;0.80;;;20.00;99.90;;;;;;5086404;28;20047;-72
2021/11/08 13:04:42;;;;;;;5.50;1.20;;;20.00;99.90;;;;;;5075434;28;20017;-72
2021/11/08 13:07:12;;;;;;;8.20;1.75;;;20.00;99.90;;;;;;5086748;28;20372;-71
2021/11/08 13:09:52;;;;;;;2.53;1.10;;;20.00;99.90;;;;;;5085854;28;20043;-72
2021/11/08 13:12:23;;;;;;;1.83;0.80;;;20.00;99.90;;;;;;5089805;28;20041;-71
2021/11/08 13:15:21;;;;;;;2.88;0.88;;;20.00;99.90;;;;;;5081815;28;20126;-73
2021/11/08 13:18:04;;;;;;;1.30;0.80;;;20.00;99.90;;;;;;5078252;28;20032;-73
2021/11/08 13:20:38;;;;;;;0.98;0.80;;;20.00;99.90;;;;;;5083139;28;20027;-72
2021/11/08 13:23:22;;;;;;;2.55;1.13;;;20.00;99.90;;;;;;5093336;28;20028;-71
2021/11/08 13:25:55;;;;;;;3.80;0.93;;;19.90;99.90;;;;;;5089763;28;20040;-71
2021/11/08 13:28:26;;;;;;;1.25;0.73;;;20.00;99.90;;;;;;5084694;28;20024;-72
2021/11/08 13:30:56;;;;;;;3.72;1.05;;;19.90;99.90;;;;;;5078098;28;20062;-71
2021/11/08 13:33:33;;;;;;;1.80;1.00;;;20.00;99.90;;;;;;5052161;28;20045;-72
2021/11/08 13:36:02;;;;;;;3.70;1.60;;;20.00;99.90;;;;;;5044073;28;20056;-71
2021/11/08 13:38:37;;;;;;;4.00;1.38;;;20.00;99.90;;;;;;5051370;28;20416;-72
2021/11/08 13:41:16;;;;;;;4.17;1.80;;;19.90;99.90;;;;;;5046991;28;20049;-72
2021/11/08 13:43:45;;;;;;;6.28;2.50;;;20.00;99.90;;;;;;5053520;28;20024;-72
2021/11/08 13:46:15;;;;;;;4.45;2.25;;;19.90;99.90;;;;;;5042970;28;20447;-72
2021/11/08 13:48:47;;;;;;;2.83;2.45;;;19.90;99.90;;;;;;5054146;28;20116;-72
2021/11/08 13:51:36;;;;;;;5.28;3.10;;;19.90;99.90;;;;;;5051124;28;20025;-72
2021/11/08 13:54:20;;;;;;;6.85;2.63;;;19.80;99.90;;;;;;5034616;28;20560;-71
2021/11/08 13:56:51;;;;;;;5.90;3.33;;;19.80;99.90;;;;;;5046314;28;20029;-71
2021/11/08 13:59:25;;;;;;;5.05;3.80;;;19.80;99.90;;;;;;5053958;28;20052;-72
2021/11/08 14:02:05;;;;;;;6.82;4.07;;;19.70;99.90;;;;;;5045195;28;20056;-72
2021/11/08 14:05:00;;;;;;;8.02;3.85;;;19.70;99.90;;;;;;5033946;28;20334;-72
2021/11/08 14:07:28;;;;;;;5.85;3.95;;;19.70;99.90;;;;;;5050693;28;20736;-72
2021/11/08 14:09:57;;;;;;;5.47;3.67;;;19.60;99.90;;;;;;5053844;28;20033;-72
2021/11/08 14:12:28;;;;;;;4.68;4.10;;;19.60;99.90;;;;;;5033673;28;20030;-72
2021/11/08 14:14:57;;;;;;;8.55;4.63;;;19.50;99.90;;;;;;5034017;28;20025;-72
2021/11/08 14:17:28;;;;;;;8.48;4.88;;;19.50;99.90;;;;;;5051596;28;20425;-72
2021/11/08 14:20:08;;;;;;;5.70;4.35;;;19.50;99.90;;;;;;5042249;28;20028;-72
2021/11/08 14:22:39;;;;;;;6.13;4.32;;;19.50;99.90;;;;;;5038072;28;20369;-72
2021/11/08 14:25:10;;;;;;;5.43;4.28;;;19.50;99.90;;;;;;5041609;28;20034;-72
2021/11/08 14:27:40;;;;;;;8.20;4.18;;;19.50;99.90;;;;;;5042389;28;20030;-72
2021/11/08 14:30:35;;;;;;;5.95;4.47;;;19.60;99.90;;;;;;5036471;28;20116;-72
2021/11/08 14:33:03;;;;;;;5.68;4.65;;;19.60;99.90;;;;;;5065749;28;20075;-72
2021/11/08 14:35:31;;;;;;;4.85;3.83;;;19.60;99.90;;;;;;5090982;28;20483;-72
2021/11/08 14:38:03;;;;;;;6.20;4.13;;;19.60;99.90;;;;;;5092334;28;20028;-71
2021/11/08 14:40:37;;;;;;;6.05;4.25;;;19.70;99.90;;;;;;5088996;28;20039;-71
2021/11/08 14:43:24;;;;;;;5.75;3.78;;;19.70;99.90;;;;;;5077290;28;20025;-71
2021/11/08 14:45:57;;;;;;;11.30;4.35;;;19.70;99.90;;;;;;5055796;28;20143;-71
2021/11/08 14:48:26;;;;;;;6.60;4.28;;;19.70;99.90;;;;;;5073216;28;20438;-72
2021/11/08 14:51:15;;;;;;;8.50;4.20;;;19.70;99.90;;;;;;5078838;28;20505;-71
2021/11/08 14:54:00;;;;;;;7.35;3.65;;;19.70;99.90;;;;;;5080125;28;20021;-72
2021/11/08 14:56:31;;;;;;;7.55;2.70;;;19.70;99.90;;;;;;5078595;28;20025;-71
2021/11/08 14:59:13;;;;;;;6.35;3.47;;;19.70;99.90;;;;;;5073392;28;20036;-71
2021/11/08 15:01:43;;;;;;;5.00;3.70;;;19.70;99.90;;;;;;5085345;28;20020;-71
2021/11/08 15:04:19;;;;;;;4.03;2.55;;;19.70;99.90;;;;;;5058495;28;20089;-72